Time;durP1;ratioP1;P1;durP2;ratioP2;P2;SDS_P1;SDS_P2;PMS_P1;PMS_P2;Temp;Humidity;BMP_temperature;BMP_pressure;BME280_temperature;BME280_humidity;BME280_pressure;Samples;Min_cycle;Max_cycle;Signal;HPM_P1;HPM_P2
2022/08/02 00:00:50;;;;;;;2.70;1.08;;;21.50;94.80;;;;;;4949298;29;20051;-50
2022/08/02 00:03:21;;;;;;;8.52;1.52;;;21.40;95.00;;;;;;4950288;28;20043;-51
2022/08/02 00:05:50;;;;;;;2.70;1.58;;;21.40;95.10;;;;;;4950397;28;20051;-52
2022/08/02 00:08:19;;;;;;;5.03;1.80;;;21.40;95.30;;;;;;4950491;28;20058;-49
2022/08/02 00:10:46;;;;;;;2.17;1.30;;;21.40;95.60;;;;;;4949169;29;20047;-54
2022/08/02 00:13:13;;;;;;;5.47;1.58;;;21.40;95.30;;;;;;4950038;28;20085;-56
2022/08/02 00:15:40;;;;;;;7.35;1.80;;;21.40;95.40;;;;;;4948881;29;20145;-54
2022/08/02 00:18:06;;;;;;;5.07;1.30;;;21.30;95.50;;;;;;4950801;28;20082;-53
2022/08/02 00:20:33;;;;;;;5.93;1.65;;;21.40;95.60;;;;;;4950029;28;20125;-52
2022/08/02 00:23:00;;;;;;;5.05;2.35;;;21.30;95.70;;;;;;4950202;28;20499;-52
2022/08/02 00:25:27;;;;;;;2.63;1.60;;;21.30;95.80;;;;;;4950146;28;20082;-55
2022/08/02 00:27:54;;;;;;;3.03;1.75;;;21.40;95.80;;;;;;4949849;28;20135;-53
2022/08/02 00:30:21;;;;;;;7.47;1.50;;;21.30;95.90;;;;;;4949892;28;20103;-53
2022/08/02 00:32:47;;;;;;;5.68;2.05;;;21.40;96.00;;;;;;4949534;29;20383;-53
2022/08/02 00:35:14;;;;;;;3.00;1.73;;;21.30;96.20;;;;;;4949728;28;20114;-54
2022/08/02 00:37:41;;;;;;;5.07;1.65;;;21.30;96.20;;;;;;4950041;28;20154;-53
2022/08/02 00:40:09;;;;;;;3.88;1.52;;;21.30;96.40;;;;;;4949839;28;20083;-55
2022/08/02 00:42:36;;;;;;;3.42;1.52;;;21.20;96.60;;;;;;4949316;28;20051;-52
2022/08/02 00:45:03;;;;;;;3.75;1.52;;;21.20;96.70;;;;;;4949555;28;20127;-54
2022/08/02 00:47:30;;;;;;;6.60;1.73;;;21.20;96.80;;;;;;4949405;29;20131;-55
2022/08/02 00:49:57;;;;;;;5.25;1.48;;;21.30;96.90;;;;;;4949831;28;20469;-52
2022/08/02 00:52:23;;;;;;;3.20;1.23;;;21.30;96.90;;;;;;4949774;29;20072;-55
2022/08/02 00:54:50;;;;;;;4.57;1.40;;;21.20;97.10;;;;;;4949810;28;20094;-52
2022/08/02 00:57:17;;;;;;;3.97;1.42;;;21.20;97.30;;;;;;4953210;28;20126;-56
2022/08/02 00:59:44;;;;;;;3.72;1.55;;;21.20;97.50;;;;;;4953782;28;20083;-54
2022/08/02 01:02:11;;;;;;;6.57;1.85;;;21.20;97.60;;;;;;4953070;28;20101;-55
2022/08/02 01:04:38;;;;;;;4.15;1.60;;;21.20;97.60;;;;;;4953809;28;20487;-52
2022/08/02 01:07:05;;;;;;;4.63;1.45;;;21.10;97.80;;;;;;4952128;29;20047;-54
2022/08/02 01:09:39;;;;;;;2.58;1.63;;;21.10;97.90;;;;;;4946703;29;20055;-54
2022/08/02 01:15:51;;;;;;;4.05;1.95;;;21.10;99.00;;;;;;4607107;28;10000118;-54
2022/08/02 01:18:25;;;;;;;4.65;1.55;;;21.00;98.60;;;;;;4961321;28;20088;-53
2022/08/02 01:21:10;;;;;;;6.97;1.83;;;20.90;99.10;;;;;;4976209;28;20055;-54
2022/08/02 01:24:00;;;;;;;5.88;2.10;;;20.90;99.80;;;;;;4961115;29;20110;-51
2022/08/02 01:26:44;;;;;;;6.53;2.30;;;20.90;99.70;;;;;;4950855;29;20055;-51
2022/08/02 01:29:29;;;;;;;6.45;1.48;;;21.00;99.50;;;;;;4968167;28;20130;-53
2022/08/02 01:31:59;;;;;;;6.07;1.70;;;20.90;99.70;;;;;;4949870;29;20075;-54
2022/08/02 01:34:38;;;;;;;5.97;1.77;;;20.80;99.60;;;;;;4953382;29;20109;-55
2022/08/02 01:37:11;;;;;;;8.30;1.45;;;20.80;99.70;;;;;;4953380;29;20135;-53
2022/08/02 01:39:38;;;;;;;4.27;1.33;;;20.80;99.90;;;;;;4954628;28;20071;-51
2022/08/02 01:42:05;;;;;;;5.43;1.60;;;20.80;99.70;;;;;;4936521;29;20058;-52
2022/08/02 01:44:33;;;;;;;5.85;1.42;;;20.90;99.80;;;;;;4953857;29;20126;-54
2022/08/02 01:47:13;;;;;;;3.50;1.33;;;20.90;99.80;;;;;;4955304;28;20101;-54
2022/08/02 01:49:40;;;;;;;5.72;1.20;;;20.80;99.90;;;;;;4967232;29;20050;-55
2022/08/02 01:52:22;;;;;;;5.50;1.80;;;20.80;99.90;;;;;;4968911;28;20050;-53
2022/08/02 01:55:00;;;;;;;2.13;1.42;;;20.80;99.90;;;;;;4964926;29;20505;-53
2022/08/02 01:57:28;;;;;;;3.33;1.58;;;20.80;99.90;;;;;;4944769;29;20075;-53
2022/08/02 01:59:55;;;;;;;3.45;1.38;;;20.80;99.90;;;;;;4936929;29;20094;-56
2022/08/02 02:02:22;;;;;;;5.72;1.58;;;20.80;99.90;;;;;;4980026;28;20043;-56
2022/08/02 02:04:49;;;;;;;5.05;1.90;;;20.80;99.90;;;;;;4962449;29;20074;-55
2022/08/02 02:07:16;;;;;;;4.40;1.70;;;20.90;99.90;;;;;;4953161;28;20078;-52
2022/08/02 02:09:42;;;;;;;4.97;1.92;;;20.80;99.90;;;;;;4963693;29;20050;-51
2022/08/02 02:12:58;;;;;;;4.43;1.67;;;20.80;99.90;;;;;;4978297;29;20031;-54
2022/08/02 02:16:07;;;;;;;5.65;1.30;;;20.80;99.90;;;;;;4945792;29;20131;-52
2022/08/02 02:19:11;;;;;;;5.53;1.63;;;20.80;99.90;;;;;;4931651;29;20199;-53
2022/08/02 02:21:46;;;;;;;6.00;1.92;;;20.70;99.90;;;;;;4933583;29;20155;-52
2022/08/02 02:24:13;;;;;;;1.65;1.30;;;20.70;99.90;;;;;;4933016;29;20643;-54
2022/08/02 02:26:41;;;;;;;4.95;2.17;;;20.70;99.90;;;;;;4933588;29;20058;-55
2022/08/02 02:29:19;;;;;;;6.07;1.30;;;20.60;99.90;;;;;;4932202;29;20043;-52
2022/08/02 02:31:46;;;;;;;1.88;1.20;;;20.60;99.90;;;;;;4900713;29;20083;-51
2022/08/02 02:34:32;;;;;;;3.10;1.27;;;20.50;99.90;;;;;;4916123;29;20050;-54
2022/08/02 02:37:01;;;;;;;4.18;1.67;;;20.60;99.90;;;;;;4930777;29;20583;-54
2022/08/02 02:39:28;;;;;;;2.97;1.55;;;20.60;99.90;;;;;;4931805;29;20534;-53
2022/08/02 02:41:56;;;;;;;5.07;1.20;;;20.60;99.90;;;;;;4916001;29;20102;-52
2022/08/02 02:44:23;;;;;;;7.25;1.67;;;20.60;99.90;;;;;;4931582;29;20519;-50
2022/08/02 02:46:51;;;;;;;4.85;1.95;;;20.60;99.90;;;;;;4932971;29;20075;-55
2022/08/02 02:49:19;;;;;;;6.72;1.75;;;20.50;99.90;;;;;;4931774;29;20139;-54
2022/08/02 02:51:46;;;;;;;3.60;1.90;;;20.60;99.90;;;;;;4916221;29;20083;-55
2022/08/02 02:54:12;;;;;;;5.80;1.70;;;20.60;99.90;;;;;;4915766;29;20039;-54
2022/08/02 02:56:59;;;;;;;5.38;1.77;;;20.60;99.90;;;;;;4931578;29;20440;-53
2022/08/02 02:59:26;;;;;;;4.53;2.20;;;20.60;99.90;;;;;;4931503;29;20123;-53
2022/08/02 03:01:53;;;;;;;6.57;2.05;;;20.60;99.90;;;;;;4932526;29;20051;-54
2022/08/02 03:04:23;;;;;;;3.83;2.05;;;20.50;99.90;;;;;;4931466;29;20051;-54
2022/08/02 03:06:50;;;;;;;3.63;1.63;;;20.50;99.90;;;;;;4915829;29;20131;-52
2022/08/02 03:09:17;;;;;;;5.40;1.63;;;20.50;99.90;;;;;;4932524;29;20044;-53
2022/08/02 03:11:44;;;;;;;2.88;1.45;;;20.50;99.90;;;;;;4932385;28;20579;-54
2022/08/02 03:14:11;;;;;;;4.78;2.03;;;20.50;99.90;;;;;;4929405;29;20549;-53
2022/08/02 03:16:45;;;;;;;4.13;1.92;;;20.50;99.90;;;;;;4930554;29;20102;-51
2022/08/02 03:19:12;;;;;;;3.28;1.60;;;20.50;99.90;;;;;;4930714;29;20131;-52
2022/08/02 03:21:38;;;;;;;3.55;1.73;;;20.40;99.90;;;;;;4931407;29;20478;-55
2022/08/02 03:24:06;;;;;;;5.43;2.25;;;20.50;99.90;;;;;;4931189;29;20048;-53
2022/08/02 03:26:32;;;;;;;4.90;1.70;;;20.50;99.90;;;;;;4932014;29;20154;-54
2022/08/02 03:28:59;;;;;;;3.17;1.58;;;20.50;99.90;;;;;;4932478;28;20459;-52
2022/08/02 03:31:36;;;;;;;6.85;1.88;;;20.50;99.90;;;;;;4931964;29;20055;-54
2022/08/02 03:34:02;;;;;;;5.97;1.58;;;20.40;99.90;;;;;;4932163;29;20087;-54
2022/08/02 03:36:30;;;;;;;9.40;1.60;;;20.40;99.90;;;;;;4931894;29;20067;-51
2022/08/02 03:38:58;;;;;;;5.75;1.83;;;20.40;99.90;;;;;;4930599;29;20131;-54
2022/08/02 03:41:25;;;;;;;6.35;2.00;;;20.30;99.90;;;;;;4911811;29;20092;-55
2022/08/02 03:43:51;;;;;;;8.63;1.95;;;20.30;99.90;;;;;;4930496;29;20464;-55
2022/08/02 03:46:19;;;;;;;6.47;2.85;;;20.20;99.90;;;;;;4914676;29;20050;-53
2022/08/02 03:48:47;;;;;;;4.97;1.88;;;20.20;99.90;;;;;;4930555;29;20079;-53
2022/08/02 03:51:14;;;;;;;5.03;1.70;;;20.10;99.90;;;;;;4930644;29;20093;-49
2022/08/02 03:53:41;;;;;;;5.50;1.52;;;20.10;99.90;;;;;;4930624;29;20087;-54
2022/08/02 03:56:08;;;;;;;6.90;1.85;;;20.00;99.90;;;;;;4931676;29;20083;-53
2022/08/02 03:58:35;;;;;;;6.70;2.05;;;20.00;99.90;;;;;;4930500;29;20131;-53
2022/08/02 04:01:01;;;;;;;6.28;2.03;;;20.10;99.90;;;;;;4931500;29;20602;-50
2022/08/02 04:03:28;;;;;;;5.18;1.73;;;20.00;99.90;;;;;;4927846;29;20056;-53
2022/08/02 04:05:55;;;;;;;7.15;1.95;;;20.10;99.90;;;;;;4930417;29;20131;-54
2022/08/02 04:08:30;;;;;;;4.03;1.98;;;20.00;99.90;;;;;;4931061;29;20134;-54
2022/08/02 04:13:48;;;;;;;5.40;1.67;;;20.00;99.90;;;;;;4931361;29;20079;-54
2022/08/02 04:16:19;;;;;;;3.03;1.65;;;20.00;99.90;;;;;;4898946;29;20058;-52
2022/08/02 04:18:52;;;;;;;5.57;1.63;;;20.00;99.90;;;;;;4914570;29;20139;-52
2022/08/02 04:21:20;;;;;;;5.72;1.88;;;20.00;99.90;;;;;;4915140;29;20128;-49
2022/08/02 04:23:47;;;;;;;6.10;1.90;;;19.90;99.90;;;;;;4911094;29;20147;-54
2022/08/02 04:26:14;;;;;;;6.68;2.17;;;19.90;99.90;;;;;;4930098;29;20062;-51
2022/08/02 04:28:42;;;;;;;7.80;2.67;;;19.90;99.90;;;;;;4929797;29;20079;-54
2022/08/02 04:31:09;;;;;;;12.85;3.70;;;19.80;99.90;;;;;;4931545;29;20147;-54
2022/08/02 04:33:35;;;;;;;3.80;2.13;;;19.90;99.90;;;;;;4929898;29;20611;-55
2022/08/02 04:36:04;;;;;;;7.57;2.40;;;19.90;99.90;;;;;;4931302;29;20142;-55
2022/08/02 04:38:31;;;;;;;5.70;2.45;;;19.90;99.90;;;;;;4931158;29;20607;-54
2022/08/02 04:40:58;;;;;;;5.35;2.10;;;19.80;99.90;;;;;;4929733;29;20059;-54
2022/08/02 04:43:25;;;;;;;3.88;2.72;;;19.70;99.90;;;;;;4931474;29;20087;-53
2022/08/02 04:45:53;;;;;;;7.22;3.13;;;19.70;99.90;;;;;;4931230;29;20138;-52
2022/08/02 04:48:20;;;;;;;9.55;2.72;;;19.60;99.90;;;;;;4931094;29;20134;-53
2022/08/02 04:50:47;;;;;;;5.78;3.10;;;19.60;99.90;;;;;;4931058;29;20098;-53
2022/08/02 04:53:14;;;;;;;12.27;3.55;;;19.70;99.90;;;;;;4930902;29;20126;-53
2022/08/02 04:55:41;;;;;;;8.32;4.07;;;19.60;99.90;;;;;;4930990;29;20087;-52
2022/08/02 04:58:08;;;;;;;5.13;3.25;;;19.70;99.90;;;;;;4929705;29;20117;-53
2022/08/02 05:00:54;;;;;;;8.88;4.18;;;19.60;99.90;;;;;;4924690;29;20052;-53
2022/08/02 05:03:21;;;;;;;6.03;3.53;;;19.60;99.90;;;;;;4930902;29;20052;-52
2022/08/02 05:05:48;;;;;;;10.60;4.10;;;19.70;99.90;;;;;;4929537;29;20143;-53
2022/08/02 05:08:15;;;;;;;4.88;3.85;;;19.70;99.90;;;;;;4931049;29;20083;-53
2022/08/02 05:10:42;;;;;;;7.15;4.07;;;19.60;99.90;;;;;;4930905;29;20570;-55
2022/08/02 05:13:08;;;;;;;8.65;3.40;;;19.60;99.90;;;;;;4930997;29;20499;-54
2022/08/02 05:15:35;;;;;;;11.00;4.07;;;19.70;99.90;;;;;;4930751;29;20070;-54
2022/08/02 05:18:02;;;;;;;8.05;3.50;;;19.70;99.90;;;;;;4931060;29;20465;-52
2022/08/02 05:20:29;;;;;;;10.45;3.17;;;19.70;99.90;;;;;;4930507;29;20132;-55
2022/08/02 05:22:56;;;;;;;5.75;2.90;;;19.60;99.90;;;;;;4931357;29;20106;-56
2022/08/02 05:25:23;;;;;;;5.07;2.70;;;19.60;99.90;;;;;;4930625;29;20067;-53
2022/08/02 05:27:49;;;;;;;6.50;2.80;;;19.60;99.90;;;;;;4931068;29;20075;-55
2022/08/02 05:30:16;;;;;;;7.80;3.30;;;19.70;99.90;;;;;;4930900;29;20136;-52
2022/08/02 05:32:47;;;;;;;6.30;2.78;;;19.60;99.90;;;;;;4930639;29;20086;-55
2022/08/02 05:35:19;;;;;;;6.95;2.33;;;19.70;99.90;;;;;;4929367;29;20139;-52
2022/08/02 05:37:46;;;;;;;5.03;2.88;;;19.70;99.90;;;;;;4930610;29;20171;-55
2022/08/02 05:40:14;;;;;;;7.55;3.05;;;19.80;99.90;;;;;;4930891;29;20047;-53
2022/08/02 05:42:41;;;;;;;6.60;2.75;;;19.90;99.90;;;;;;4933052;29;20078;-55
2022/08/02 05:45:08;;;;;;;11.10;3.15;;;19.80;99.90;;;;;;4922368;29;20067;-52
2022/08/02 05:47:35;;;;;;;7.72;3.08;;;19.90;99.90;;;;;;4934139;29;20060;-50
2022/08/02 05:50:03;;;;;;;6.70;2.72;;;19.80;99.90;;;;;;4917454;29;20047;-55
2022/08/02 05:53:16;;;;;;;5.65;3.05;;;19.90;99.90;;;;;;4934266;29;20086;-52
2022/08/02 05:56:17;;;;;;;5.47;2.78;;;19.90;99.90;;;;;;4921002;29;20138;-53
2022/08/02 05:59:04;;;;;;;8.30;3.03;;;20.00;99.90;;;;;;4944598;28;20435;-53
2022/08/02 06:01:36;;;;;;;11.02;4.90;;;20.00;99.90;;;;;;4933611;29;20048;-51
2022/08/02 06:04:07;;;;;;;6.68;3.05;;;20.10;99.90;;;;;;4930863;29;20135;-54
2022/08/02 06:06:35;;;;;;;6.88;3.85;;;20.20;99.90;;;;;;4933607;29;20048;-52
2022/08/02 06:09:07;;;;;;;7.93;2.95;;;20.30;99.90;;;;;;4933847;29;20107;-53
2022/08/02 06:11:37;;;;;;;7.80;3.60;;;20.30;99.90;;;;;;4933925;29;20075;-53
2022/08/02 06:14:04;;;;;;;6.05;3.25;;;20.40;99.90;;;;;;4916854;29;20083;-54
2022/08/02 06:16:31;;;;;;;13.30;4.65;;;20.40;99.90;;;;;;4933486;29;20066;-55
2022/08/02 06:19:07;;;;;;;7.82;3.38;;;20.40;99.90;;;;;;4932595;29;20430;-57
2022/08/02 06:21:34;;;;;;;13.13;4.45;;;20.50;99.90;;;;;;4916839;29;20094;-52
2022/08/02 06:24:21;;;;;;;6.03;3.70;;;20.60;99.90;;;;;;4932196;29;20500;-52
2022/08/02 06:26:51;;;;;;;14.38;4.10;;;20.70;99.90;;;;;;4932046;29;20058;-53
2022/08/02 06:29:19;;;;;;;7.53;3.67;;;20.70;99.90;;;;;;4931939;29;20055;-52
2022/08/02 06:31:49;;;;;;;11.02;4.85;;;20.80;99.90;;;;;;4932221;29;20056;-53
2022/08/02 06:34:16;;;;;;;13.02;4.60;;;20.80;99.90;;;;;;4932021;29;20052;-53
2022/08/02 06:36:49;;;;;;;9.65;4.45;;;20.90;99.90;;;;;;4933044;29;20056;-53
2022/08/02 06:39:22;;;;;;;16.05;5.63;;;20.90;99.90;;;;;;4933149;29;20133;-53
2022/08/02 06:41:49;;;;;;;10.25;4.53;;;21.00;99.90;;;;;;4932550;29;20076;-51
2022/08/02 06:44:16;;;;;;;17.33;4.70;;;21.00;99.90;;;;;;4930078;29;20082;-53
2022/08/02 06:47:03;;;;;;;10.55;4.28;;;21.00;99.90;;;;;;4939438;29;20632;-52
2022/08/02 06:49:39;;;;;;;8.93;4.40;;;21.00;99.90;;;;;;4928638;29;20071;-57
2022/08/02 06:52:31;;;;;;;8.07;4.55;;;21.10;99.90;;;;;;4945180;29;20126;-54
2022/08/02 06:54:59;;;;;;;9.40;4.55;;;21.10;99.90;;;;;;4931808;29;20079;-56
2022/08/02 06:57:27;;;;;;;14.65;4.15;;;21.20;99.90;;;;;;4947424;29;20052;-57
2022/08/02 06:59:54;;;;;;;4.55;3.65;;;21.20;99.90;;;;;;4932418;29;20043;-54
2022/08/02 07:02:23;;;;;;;7.00;3.10;;;21.20;99.90;;;;;;4932860;29;20079;-54
2022/08/02 07:04:50;;;;;;;5.75;4.15;;;21.20;99.90;;;;;;4931318;29;20048;-52
2022/08/02 07:07:17;;;;;;;8.32;4.25;;;21.20;99.90;;;;;;4925171;29;20052;-52
2022/08/02 07:09:44;;;;;;;9.63;4.43;;;21.20;99.90;;;;;;4932276;29;20079;-52
2022/08/02 07:12:30;;;;;;;7.20;4.30;;;21.30;99.90;;;;;;4931032;29;20055;-56
2022/08/02 07:14:58;;;;;;;7.43;3.72;;;21.30;99.90;;;;;;4929228;29;20051;-54
2022/08/02 07:17:25;;;;;;;6.78;3.53;;;21.40;99.90;;;;;;4926798;29;20051;-54
2022/08/02 07:19:52;;;;;;;8.30;4.63;;;21.50;99.90;;;;;;4928803;29;20460;-54
2022/08/02 07:22:22;;;;;;;10.85;5.97;;;21.50;99.90;;;;;;4926212;29;20086;-55
2022/08/02 07:24:49;;;;;;;6.40;3.47;;;21.50;99.90;;;;;;4930226;29;20044;-52
2022/08/02 07:27:16;;;;;;;7.05;3.33;;;21.60;99.90;;;;;;4926021;29;20100;-56
2022/08/02 07:29:43;;;;;;;11.88;3.85;;;21.70;99.90;;;;;;4929177;28;20051;-53
2022/08/02 07:32:17;;;;;;;7.50;3.67;;;21.80;99.90;;;;;;4927441;29;20055;-54
2022/08/02 07:34:44;;;;;;;6.55;3.58;;;21.80;99.90;;;;;;4930906;29;20048;-55
2022/08/02 07:37:18;;;;;;;13.32;3.80;;;21.90;99.90;;;;;;4930591;29;20554;-49
2022/08/02 07:40:06;;;;;;;8.10;3.38;;;22.00;99.90;;;;;;4931064;29;20059;-53
2022/08/02 07:42:39;;;;;;;9.63;4.03;;;22.10;99.90;;;;;;4931397;29;20051;-51
2022/08/02 07:45:06;;;;;;;8.73;3.15;;;22.00;99.90;;;;;;4930775;29;20086;-54
2022/08/02 07:47:36;;;;;;;10.73;5.82;;;22.10;99.90;;;;;;4931252;29;20463;-53
2022/08/02 07:50:04;;;;;;;8.02;2.90;;;22.20;99.90;;;;;;4930917;29;20048;-52
2022/08/02 07:52:31;;;;;;;7.70;2.70;;;22.20;99.90;;;;;;4929778;29;20098;-54
2022/08/02 07:54:58;;;;;;;9.20;3.85;;;22.20;99.90;;;;;;4929841;29;20075;-53
2022/08/02 07:57:25;;;;;;;5.55;2.88;;;22.30;99.90;;;;;;4908455;29;20059;-55
2022/08/02 07:59:51;;;;;;;10.27;3.03;;;22.40;99.90;;;;;;4930836;29;20075;-53
2022/08/02 08:02:18;;;;;;;8.65;2.63;;;22.40;99.90;;;;;;4929727;29;20169;-56
2022/08/02 08:04:45;;;;;;;7.95;2.80;;;22.40;99.90;;;;;;4930236;29;20186;-53
2022/08/02 08:07:12;;;;;;;6.28;2.97;;;22.40;99.90;;;;;;4928798;29;20047;-51
2022/08/02 08:09:40;;;;;;;9.40;2.97;;;22.40;99.90;;;;;;4928989;29;20580;-55
2022/08/02 08:12:07;;;;;;;13.82;3.47;;;22.40;99.90;;;;;;4929242;29;20131;-52
2022/08/02 08:14:35;;;;;;;10.70;2.90;;;22.50;99.90;;;;;;4929175;29;20047;-49
2022/08/02 08:17:02;;;;;;;8.07;3.00;;;22.60;99.90;;;;;;4929101;29;20567;-51
2022/08/02 08:19:29;;;;;;;9.50;2.50;;;22.60;99.90;;;;;;4927607;29;20724;-54
2022/08/02 08:22:16;;;;;;;12.15;2.80;;;22.60;99.90;;;;;;4926657;29;20393;-52
2022/08/02 08:24:43;;;;;;;6.10;2.55;;;22.70;99.90;;;;;;4928931;29;20135;-49
2022/08/02 08:27:13;;;;;;;9.57;2.95;;;22.80;99.90;;;;;;4928825;29;20079;-55
2022/08/02 08:29:41;;;;;;;5.68;2.63;;;22.90;99.90;;;;;;4929391;29;20114;-59
2022/08/02 08:32:08;;;;;;;5.75;2.20;;;22.90;99.90;;;;;;4928491;29;20039;-53
2022/08/02 08:34:42;;;;;;;6.03;2.40;;;22.90;99.90;;;;;;4930249;28;20107;-53
2022/08/02 08:37:08;;;;;;;4.25;2.30;;;23.00;99.90;;;;;;4929392;29;20519;-55
2022/08/02 08:39:43;;;;;;;7.43;2.70;;;23.00;99.90;;;;;;4929574;29;20500;-54
2022/08/02 08:42:27;;;;;;;6.80;2.75;;;23.10;99.90;;;;;;4929430;29;20055;-51
2022/08/02 08:44:55;;;;;;;8.02;2.53;;;23.30;99.90;;;;;;4929993;29;20103;-50
2022/08/02 08:47:23;;;;;;;7.82;2.72;;;23.30;99.90;;;;;;4929562;29;20709;-54
2022/08/02 08:49:51;;;;;;;5.22;2.25;;;23.40;99.90;;;;;;4928491;29;20099;-53
2022/08/02 08:52:19;;;;;;;13.40;2.72;;;23.50;99.90;;;;;;4928322;29;20055;-51
2022/08/02 08:54:46;;;;;;;5.70;2.25;;;23.50;99.90;;;;;;4928276;29;20047;-53
2022/08/02 08:57:15;;;;;;;13.75;2.90;;;23.50;99.90;;;;;;4927488;29;20058;-55
2022/08/02 08:59:42;;;;;;;4.93;2.28;;;23.60;99.90;;;;;;4928543;29;20086;-53
2022/08/02 09:02:10;;;;;;;9.20;2.80;;;23.70;99.90;;;;;;4928648;29;20048;-52
2022/08/02 09:04:49;;;;;;;8.15;2.50;;;23.70;99.90;;;;;;4928812;29;20043;-54
2022/08/02 09:07:21;;;;;;;3.72;2.05;;;23.70;99.90;;;;;;4928789;29;20039;-54
2022/08/02 09:09:48;;;;;;;6.03;2.78;;;23.70;99.90;;;;;;4930060;29;20090;-52
2022/08/02 09:12:15;;;;;;;4.38;2.25;;;23.70;99.90;;;;;;4929583;29;20518;-51
2022/08/02 09:14:42;;;;;;;4.38;2.28;;;23.80;99.90;;;;;;4929944;29;20172;-54
2022/08/02 09:17:11;;;;;;;5.90;1.63;;;23.70;99.90;;;;;;4931021;29;20047;-53
2022/08/02 09:19:38;;;;;;;3.17;1.42;;;23.70;99.90;;;;;;4932995;29;20048;-54
2022/08/02 09:22:12;;;;;;;5.25;1.48;;;23.70;99.90;;;;;;4932843;29;20059;-53
2022/08/02 09:24:57;;;;;;;4.63;1.65;;;23.70;99.90;;;;;;4932810;29;20421;-53
2022/08/02 09:27:24;;;;;;;7.72;1.85;;;23.70;99.90;;;;;;4931310;29;20156;-54
2022/08/02 09:29:53;;;;;;;11.85;3.30;;;23.70;99.90;;;;;;4931856;29;20123;-52
2022/08/02 09:32:46;;;;;;;7.88;1.27;;;23.60;99.90;;;;;;4932519;29;20052;-51
2022/08/02 09:35:14;;;;;;;4.38;1.30;;;23.50;99.90;;;;;;4893484;28;1163861;-53
2022/08/02 09:37:41;;;;;;;3.75;1.35;;;23.50;99.90;;;;;;4932472;29;20110;-54
2022/08/02 09:40:14;;;;;;;5.25;2.40;;;23.50;99.90;;;;;;4934072;28;20044;-53
2022/08/02 09:42:57;;;;;;;2.88;1.90;;;23.50;99.90;;;;;;4933621;29;20134;-55
2022/08/02 09:45:29;;;;;;;15.80;3.60;;;23.50;99.90;;;;;;4933944;29;20127;-52
2022/08/02 09:47:56;;;;;;;5.18;1.77;;;23.40;99.90;;;;;;4931948;29;20047;-51
2022/08/02 09:50:23;;;;;;;3.67;2.17;;;23.30;99.90;;;;;;4933707;29;20567;-54
2022/08/02 09:52:50;;;;;;;8.25;2.25;;;23.50;99.90;;;;;;4933565;29;20079;-54
2022/08/02 09:55:16;;;;;;;4.85;1.70;;;23.50;99.90;;;;;;4932294;29;20611;-54
2022/08/02 09:57:53;;;;;;;5.27;2.02;;;23.60;99.90;;;;;;4923022;28;10001217;-54
2022/08/02 10:00:20;;;;;;;9.25;2.60;;;23.60;99.90;;;;;;4898065;29;20327;-52
2022/08/02 10:03:09;;;;;;;6.30;2.60;;;23.70;99.90;;;;;;4930540;29;20061;-53
2022/08/02 10:05:49;;;;;;;7.03;3.30;;;23.60;99.90;;;;;;4929911;29;20048;-49
2022/08/02 10:08:28;;;;;;;6.60;2.65;;;23.70;99.90;;;;;;4929835;29;20047;-52
2022/08/02 10:11:00;;;;;;;6.38;3.08;;;23.90;99.90;;;;;;4923084;29;20040;-53
2022/08/02 10:13:33;;;;;;;12.27;3.38;;;24.00;99.90;;;;;;4929616;29;20087;-54
2022/08/02 10:16:01;;;;;;;6.05;2.45;;;24.10;99.90;;;;;;4930103;29;20444;-55
2022/08/02 10:18:28;;;;;;;4.07;2.50;;;24.00;99.90;;;;;;4929522;29;20122;-52
2022/08/02 10:21:09;;;;;;;7.25;2.67;;;24.00;99.90;;;;;;4926585;29;20048;-54
2022/08/02 10:23:36;;;;;;;3.95;2.30;;;23.90;99.90;;;;;;4928420;29;20419;-51
2022/08/02 10:26:03;;;;;;;9.15;2.40;;;24.00;99.90;;;;;;4911390;29;20044;-53
2022/08/02 10:28:32;;;;;;;6.57;2.63;;;24.00;99.90;;;;;;4909294;29;20052;-52
2022/08/02 10:31:00;;;;;;;4.10;2.17;;;24.10;99.90;;;;;;4928656;29;20136;-53
2022/08/02 10:33:31;;;;;;;2.88;2.03;;;24.10;99.90;;;;;;4912999;29;20091;-54
2022/08/02 10:35:58;;;;;;;7.75;2.40;;;24.10;99.90;;;;;;4912369;29;20463;-52
2022/08/02 10:38:33;;;;;;;6.30;1.73;;;24.20;99.90;;;;;;4928255;29;20570;-52
2022/08/02 10:41:00;;;;;;;9.52;2.20;;;24.20;99.90;;;;;;4912799;29;20454;-52
2022/08/02 10:43:30;;;;;;;2.97;1.77;;;24.20;99.90;;;;;;4929508;29;20055;-53
2022/08/02 10:46:34;;;;;;;4.20;2.45;;;24.20;99.90;;;;;;4928887;29;20087;-53
2022/08/02 10:49:07;;;;;;;3.55;1.67;;;24.30;99.90;;;;;;4919914;29;20179;-52
2022/08/02 10:52:04;;;;;;;5.37;1.73;;;24.30;99.90;;;;;;4928259;28;20052;-54
2022/08/02 10:54:38;;;;;;;7.68;2.47;;;24.40;99.90;;;;;;4929335;29;20051;-52
2022/08/02 10:57:20;;;;;;;6.22;2.22;;;24.30;99.90;;;;;;4911809;29;20086;-55
2022/08/02 10:59:48;;;;;;;3.60;2.30;;;24.50;99.90;;;;;;4928992;29;20051;-52
2022/08/02 11:02:32;;;;;;;6.68;2.25;;;24.70;99.90;;;;;;4928831;29;20579;-50
2022/08/02 11:05:00;;;;;;;4.70;1.88;;;24.70;99.90;;;;;;4927836;29;20098;-53
2022/08/02 11:07:50;;;;;;;6.30;1.98;;;24.80;99.90;;;;;;4929085;29;20147;-54
2022/08/02 11:10:26;;;;;;;3.78;1.80;;;24.90;99.90;;;;;;4932774;28;20047;-53
2022/08/02 11:13:13;;;;;;;4.43;2.22;;;25.00;99.90;;;;;;4926695;29;20130;-51
2022/08/02 11:16:03;;;;;;;6.82;2.30;;;25.00;99.90;;;;;;4928723;29;20087;-53
2022/08/02 11:18:42;;;;;;;3.10;1.70;;;25.00;99.90;;;;;;4929233;29;20059;-54
2022/08/02 11:21:39;;;;;;;4.85;1.48;;;25.00;99.90;;;;;;4928215;29;20511;-54
2022/08/02 11:24:28;;;;;;;5.47;1.73;;;25.10;99.90;;;;;;4935763;28;20086;-52
2022/08/02 11:27:03;;;;;;;4.80;1.50;;;25.10;99.70;;;;;;4928521;29;20443;-54
2022/08/02 11:29:38;;;;;;;5.40;1.70;;;24.90;99.90;;;;;;4928323;29;20491;-51
2022/08/02 11:32:18;;;;;;;3.25;1.30;;;25.00;99.90;;;;;;4928479;29;20048;-52
2022/08/02 11:34:46;;;;;;;4.25;1.30;;;24.80;99.80;;;;;;4927553;29;20085;-54
2022/08/02 11:37:12;;;;;;;6.25;1.10;;;24.70;99.90;;;;;;4928317;29;20523;-56
2022/08/02 11:39:39;;;;;;;5.03;0.70;;;24.60;99.90;;;;;;4917858;29;20111;-52
2022/08/02 11:42:06;;;;;;;3.15;0.88;;;24.60;99.90;;;;;;4925894;29;20075;-55
2022/08/02 11:44:39;;;;;;;7.95;1.23;;;24.60;99.90;;;;;;4926518;29;20059;-53
2022/08/02 11:47:07;;;;;;;3.10;1.38;;;24.60;99.90;;;;;;4927963;29;20094;-55
2022/08/02 11:49:34;;;;;;;2.45;0.85;;;24.60;99.90;;;;;;4927942;28;20308;-54
2022/08/02 11:52:06;;;;;;;3.08;1.15;;;24.70;99.90;;;;;;4927146;29;20122;-55
2022/08/02 11:54:35;;;;;;;4.68;0.90;;;24.70;99.90;;;;;;4921361;29;20051;-49
2022/08/02 11:57:19;;;;;;;8.88;1.40;;;24.70;99.90;;;;;;4926546;29;20170;-53
2022/08/02 11:59:53;;;;;;;3.55;0.80;;;24.80;99.90;;;;;;4926569;29;20055;-54
2022/08/02 12:02:21;;;;;;;;;;;24.80;99.80;;;;;;4925804;29;20123;-52
2022/08/02 12:04:56;;;;;;;2.20;1.25;;;24.70;99.90;;;;;;4926160;29;19926;-54
2022/08/02 12:07:31;;;;;;;4.40;1.25;;;24.80;99.90;;;;;;4925229;29;20055;-54
2022/08/02 12:10:01;;;;;;;6.13;1.33;;;24.80;99.90;;;;;;4926231;29;20118;-53
2022/08/02 12:12:28;;;;;;;4.45;1.27;;;24.90;99.90;;;;;;4926613;29;20131;-53
2022/08/02 12:14:55;;;;;;;4.35;1.30;;;25.00;99.90;;;;;;4927604;29;20123;-50
2022/08/02 12:20:13;;;;;;;1.95;1.02;;;25.10;99.60;;;;;;4928184;29;20062;-53
2022/08/02 12:22:40;;;;;;;3.88;1.85;;;25.00;99.60;;;;;;4927724;29;20443;-53
2022/08/02 12:25:18;;;;;;;3.08;1.27;;;25.00;99.70;;;;;;4924028;28;20047;-55
2022/08/02 12:28:24;;;;;;;2.27;0.87;;;25.00;99.90;;;;;;4927326;29;20865;-54
2022/08/02 12:30:54;;;;;;;3.17;1.02;;;25.00;99.90;;;;;;4921218;29;20114;-54
2022/08/02 12:33:21;;;;;;;1.00;0.77;;;24.90;99.90;;;;;;4927296;29;20151;-50
2022/08/02 12:35:48;;;;;;;5.93;1.10;;;24.90;99.90;;;;;;4927151;29;20060;-53
2022/08/02 12:38:15;;;;;;;2.90;1.10;;;25.00;99.90;;;;;;4927461;29;20091;-54
2022/08/02 12:40:42;;;;;;;6.57;1.38;;;25.00;99.90;;;;;;4927574;29;20152;-54
2022/08/02 12:43:19;;;;;;;2.05;0.90;;;25.40;99.90;;;;;;4927382;29;20138;-54
2022/08/02 12:45:47;;;;;;;3.67;1.20;;;25.60;99.60;;;;;;4927080;29;20044;-54
2022/08/02 12:48:16;;;;;;;3.00;1.02;;;25.60;98.70;;;;;;4927537;29;20114;-51
2022/08/02 12:50:43;;;;;;;2.13;1.08;;;25.60;99.10;;;;;;4926235;29;20512;-52
2022/08/02 12:53:12;;;;;;;2.67;1.10;;;25.50;98.60;;;;;;4927168;29;20083;-52
2022/08/02 12:55:50;;;;;;;6.00;1.35;;;25.40;99.10;;;;;;4927065;29;20109;-54
2022/08/02 12:58:29;;;;;;;4.47;1.58;;;25.40;99.10;;;;;;4926700;29;20464;-52
2022/08/02 13:00:58;;;;;;;3.78;1.10;;;25.40;98.60;;;;;;4926758;28;20055;-53
2022/08/02 13:03:25;;;;;;;3.30;1.10;;;25.30;99.10;;;;;;4927606;29;20609;-51
2022/08/02 13:06:12;;;;;;;5.05;1.30;;;25.30;99.20;;;;;;4926627;29;20059;-53
2022/08/02 13:08:59;;;;;;;5.13;1.10;;;25.40;99.10;;;;;;4926600;29;20048;-53
2022/08/02 13:11:26;;;;;;;11.55;1.88;;;25.50;98.80;;;;;;4927142;28;20400;-55
2022/08/02 13:13:53;;;;;;;2.30;1.27;;;25.70;98.60;;;;;;4926034;29;20079;-53
2022/08/02 13:16:20;;;;;;;4.20;1.02;;;25.70;97.70;;;;;;4926745;29;20086;-50